Terminal Aerodrome Forecast
Issued by NWS Caribou, ME

Home | Current Version | Previous Version | Text Only | Print | Product List | Glossary On
Versions: 1 2 3 4 5 6 7 8 9 10 11 12 13 14 15 16 17 18 19 20 21
697
FTUS41 KCAR 291120
TAFCAR
TAF
KCAR 291120Z 2912/3012 00000KT P6SM SCT003
     FM291700 28004KT P6SM BKN045
     FM292200 32004KT P6SM SCT250=

USA.gov is the U.S. government's official web portal to all federal, state and local government web resources and services.